sensor_id;sensor_type;location;lat;lon;timestamp;P1;durP1;ratioP1;P2;durP2;ratioP2
8893;SDS011;4483;48.622;9.230;2023-06-04T00:01:08;5.30;;;4.73;;
8893;SDS011;4483;48.622;9.230;2023-06-04T00:03:34;5.17;;;4.67;;
8893;SDS011;4483;48.622;9.230;2023-06-04T00:06:01;7.90;;;5.50;;
8893;SDS011;4483;48.622;9.230;2023-06-04T00:08:28;6.27;;;5.30;;
8893;SDS011;4483;48.622;9.230;2023-06-04T00:10:54;5.60;;;5.00;;
8893;SDS011;4483;48.622;9.230;2023-06-04T00:13:22;7.73;;;5.20;;
8893;SDS011;4483;48.622;9.230;2023-06-04T00:15:49;5.87;;;5.30;;
8893;SDS011;4483;48.622;9.230;2023-06-04T00:18:15;6.03;;;5.40;;
8893;SDS011;4483;48.622;9.230;2023-06-04T00:20:42;5.33;;;4.60;;
8893;SDS011;4483;48.622;9.230;2023-06-04T00:23:08;5.00;;;4.60;;
8893;SDS011;4483;48.622;9.230;2023-06-04T00:25:35;7.27;;;5.30;;
8893;SDS011;4483;48.622;9.230;2023-06-04T00:28:01;6.03;;;5.33;;
8893;SDS011;4483;48.622;9.230;2023-06-04T00:30:30;7.77;;;5.20;;
8893;SDS011;4483;48.622;9.230;2023-06-04T00:32:56;8.33;;;5.57;;
8893;SDS011;4483;48.622;9.230;2023-06-04T00:35:23;7.10;;;5.40;;
8893;SDS011;4483;48.622;9.230;2023-06-04T00:37:49;7.03;;;4.87;;
8893;SDS011;4483;48.622;9.230;2023-06-04T00:40:16;5.80;;;5.30;;
8893;SDS011;4483;48.622;9.230;2023-06-04T00:42:43;6.80;;;5.03;;
8893;SDS011;4483;48.622;9.230;2023-06-04T00:45:11;8.00;;;5.50;;
8893;SDS011;4483;48.622;9.230;2023-06-04T00:47:42;7.13;;;4.93;;
8893;SDS011;4483;48.622;9.230;2023-06-04T00:50:09;6.13;;;5.43;;
8893;SDS011;4483;48.622;9.230;2023-06-04T00:52:36;8.77;;;5.90;;
8893;SDS011;4483;48.622;9.230;2023-06-04T00:55:02;7.27;;;5.47;;
8893;SDS011;4483;48.622;9.230;2023-06-04T00:57:29;7.70;;;5.60;;
8893;SDS011;4483;48.622;9.230;2023-06-04T00:59:56;6.17;;;5.33;;
8893;SDS011;4483;48.622;9.230;2023-06-04T01:02:23;5.83;;;5.20;;
8893;SDS011;4483;48.622;9.230;2023-06-04T01:04:55;5.73;;;5.20;;
8893;SDS011;4483;48.622;9.230;2023-06-04T01:07:29;7.70;;;5.80;;
8893;SDS011;4483;48.622;9.230;2023-06-04T01:09:56;6.50;;;5.87;;
8893;SDS011;4483;48.622;9.230;2023-06-04T01:12:23;5.93;;;5.10;;
8893;SDS011;4483;48.622;9.230;2023-06-04T01:14:50;5.90;;;5.00;;
8893;SDS011;4483;48.622;9.230;2023-06-04T01:17:17;6.23;;;5.60;;
8893;SDS011;4483;48.622;9.230;2023-06-04T01:19:54;7.10;;;5.37;;
8893;SDS011;4483;48.622;9.230;2023-06-04T01:22:32;8.70;;;5.03;;
8893;SDS011;4483;48.622;9.230;2023-06-04T01:25:04;6.23;;;5.07;;
8893;SDS011;4483;48.622;9.230;2023-06-04T01:27:36;6.30;;;5.47;;
8893;SDS011;4483;48.622;9.230;2023-06-04T01:30:05;6.10;;;5.13;;
8893;SDS011;4483;48.622;9.230;2023-06-04T01:32:34;5.90;;;5.27;;
8893;SDS011;4483;48.622;9.230;2023-06-04T01:35:02;7.33;;;5.37;;
8893;SDS011;4483;48.622;9.230;2023-06-04T01:37:33;7.23;;;6.17;;
8893;SDS011;4483;48.622;9.230;2023-06-04T01:39:59;7.37;;;5.33;;
8893;SDS011;4483;48.622;9.230;2023-06-04T01:42:26;9.73;;;5.97;;
8893;SDS011;4483;48.622;9.230;2023-06-04T01:44:52;6.17;;;5.17;;
8893;SDS011;4483;48.622;9.230;2023-06-04T01:47:19;7.60;;;5.20;;
8893;SDS011;4483;48.622;9.230;2023-06-04T01:49:46;6.23;;;5.03;;
8893;SDS011;4483;48.622;9.230;2023-06-04T01:52:13;5.77;;;5.17;;
8893;SDS011;4483;48.622;9.230;2023-06-04T01:54:41;7.67;;;5.87;;
8893;SDS011;4483;48.622;9.230;2023-06-04T01:57:08;5.50;;;5.00;;
8893;SDS011;4483;48.622;9.230;2023-06-04T01:59:35;5.90;;;5.20;;
8893;SDS011;4483;48.622;9.230;2023-06-04T02:02:03;6.80;;;5.07;;
8893;SDS011;4483;48.622;9.230;2023-06-04T02:04:30;7.20;;;4.93;;
8893;SDS011;4483;48.622;9.230;2023-06-04T02:06:57;6.47;;;5.40;;
8893;SDS011;4483;48.622;9.230;2023-06-04T02:09:26;5.93;;;5.33;;
8893;SDS011;4483;48.622;9.230;2023-06-04T02:11:52;7.87;;;5.20;;
8893;SDS011;4483;48.622;9.230;2023-06-04T02:14:19;6.93;;;5.07;;
8893;SDS011;4483;48.622;9.230;2023-06-04T02:16:45;6.50;;;5.33;;
8893;SDS011;4483;48.622;9.230;2023-06-04T02:19:14;6.47;;;5.87;;
8893;SDS011;4483;48.622;9.230;2023-06-04T02:21:43;8.23;;;5.43;;
8893;SDS011;4483;48.622;9.230;2023-06-04T02:24:10;5.57;;;5.07;;
8893;SDS011;4483;48.622;9.230;2023-06-04T02:26:38;7.83;;;5.53;;
8893;SDS011;4483;48.622;9.230;2023-06-04T02:29:04;6.17;;;5.57;;
8893;SDS011;4483;48.622;9.230;2023-06-04T02:31:31;6.97;;;5.33;;
8893;SDS011;4483;48.622;9.230;2023-06-04T02:33:57;5.47;;;4.97;;
8893;SDS011;4483;48.622;9.230;2023-06-04T02:36:24;7.50;;;5.43;;
8893;SDS011;4483;48.622;9.230;2023-06-04T02:38:51;6.33;;;5.73;;
8893;SDS011;4483;48.622;9.230;2023-06-04T02:41:17;7.47;;;5.83;;
8893;SDS011;4483;48.622;9.230;2023-06-04T02:43:46;6.20;;;5.33;;
8893;SDS011;4483;48.622;9.230;2023-06-04T02:46:12;6.37;;;5.60;;
8893;SDS011;4483;48.622;9.230;2023-06-04T02:48:39;9.20;;;5.97;;
8893;SDS011;4483;48.622;9.230;2023-06-04T02:51:06;6.03;;;5.43;;
8893;SDS011;4483;48.622;9.230;2023-06-04T02:53:35;6.37;;;5.30;;
8893;SDS011;4483;48.622;9.230;2023-06-04T02:56:02;6.60;;;6.00;;
8893;SDS011;4483;48.622;9.230;2023-06-04T02:58:28;6.43;;;5.77;;
8893;SDS011;4483;48.622;9.230;2023-06-04T03:00:57;8.77;;;6.07;;
8893;SDS011;4483;48.622;9.230;2023-06-04T03:03:24;6.33;;;5.73;;
8893;SDS011;4483;48.622;9.230;2023-06-04T03:05:52;6.13;;;5.53;;
8893;SDS011;4483;48.622;9.230;2023-06-04T03:08:19;8.63;;;6.23;;
8893;SDS011;4483;48.622;9.230;2023-06-04T03:10:46;6.83;;;6.10;;
8893;SDS011;4483;48.622;9.230;2023-06-04T03:13:12;5.83;;;5.30;;
8893;SDS011;4483;48.622;9.230;2023-06-04T03:15:40;8.43;;;5.20;;
8893;SDS011;4483;48.622;9.230;2023-06-04T03:18:08;6.43;;;5.70;;
8893;SDS011;4483;48.622;9.230;2023-06-04T03:20:34;5.77;;;5.17;;
8893;SDS011;4483;48.622;9.230;2023-06-04T03:23:03;6.00;;;5.40;;
8893;SDS011;4483;48.622;9.230;2023-06-04T03:25:29;6.00;;;5.40;;
8893;SDS011;4483;48.622;9.230;2023-06-04T03:27:56;6.97;;;5.40;;
8893;SDS011;4483;48.622;9.230;2023-06-04T03:30:22;7.47;;;5.63;;
8893;SDS011;4483;48.622;9.230;2023-06-04T03:32:49;10.23;;;5.93;;
8893;SDS011;4483;48.622;9.230;2023-06-04T03:35:17;7.53;;;5.77;;
8893;SDS011;4483;48.622;9.230;2023-06-04T03:37:43;5.67;;;5.07;;
8893;SDS011;4483;48.622;9.230;2023-06-04T03:40:10;10.97;;;6.10;;
8893;SDS011;4483;48.622;9.230;2023-06-04T03:42:38;6.40;;;5.30;;
8893;SDS011;4483;48.622;9.230;2023-06-04T03:45:05;8.80;;;5.50;;
8893;SDS011;4483;48.622;9.230;2023-06-04T03:47:32;6.60;;;5.80;;
8893;SDS011;4483;48.622;9.230;2023-06-04T03:49:59;6.03;;;5.47;;
8893;SDS011;4483;48.622;9.230;2023-06-04T03:52:27;5.90;;;5.40;;
8893;SDS011;4483;48.622;9.230;2023-06-04T03:54:53;8.03;;;5.40;;
8893;SDS011;4483;48.622;9.230;2023-06-04T03:57:20;6.87;;;5.57;;
8893;SDS011;4483;48.622;9.230;2023-06-04T03:59:46;7.53;;;5.50;;
8893;SDS011;4483;48.622;9.230;2023-06-04T04:02:13;8.17;;;5.47;;
8893;SDS011;4483;48.622;9.230;2023-06-04T04:04:40;7.00;;;5.27;;
8893;SDS011;4483;48.622;9.230;2023-06-04T04:07:06;5.90;;;5.40;;
8893;SDS011;4483;48.622;9.230;2023-06-04T04:09:35;7.27;;;5.57;;
8893;SDS011;4483;48.622;9.230;2023-06-04T04:12:01;6.00;;;5.40;;
8893;SDS011;4483;48.622;9.230;2023-06-04T04:14:28;6.63;;;5.70;;
8893;SDS011;4483;48.622;9.230;2023-06-04T04:16:55;8.43;;;5.30;;
8893;SDS011;4483;48.622;9.230;2023-06-04T04:19:22;6.43;;;5.10;;
8893;SDS011;4483;48.622;9.230;2023-06-04T04:21:48;6.50;;;5.30;;
8893;SDS011;4483;48.622;9.230;2023-06-04T04:24:21;6.47;;;5.80;;
8893;SDS011;4483;48.622;9.230;2023-06-04T04:26:50;5.83;;;5.23;;
8893;SDS011;4483;48.622;9.230;2023-06-04T04:29:18;6.30;;;5.27;;
8893;SDS011;4483;48.622;9.230;2023-06-04T04:31:47;6.23;;;5.73;;
8893;SDS011;4483;48.622;9.230;2023-06-04T04:34:14;7.70;;;5.70;;
8893;SDS011;4483;48.622;9.230;2023-06-04T04:36:41;6.13;;;5.53;;
8893;SDS011;4483;48.622;9.230;2023-06-04T04:39:09;6.33;;;5.80;;
8893;SDS011;4483;48.622;9.230;2023-06-04T04:41:36;10.17;;;5.80;;
8893;SDS011;4483;48.622;9.230;2023-06-04T04:44:04;7.47;;;5.33;;
8893;SDS011;4483;48.622;9.230;2023-06-04T04:46:31;5.77;;;5.07;;
8893;SDS011;4483;48.622;9.230;2023-06-04T04:48:58;5.97;;;5.30;;
8893;SDS011;4483;48.622;9.230;2023-06-04T04:51:25;6.67;;;5.27;;
8893;SDS011;4483;48.622;9.230;2023-06-04T04:53:51;6.30;;;4.97;;
8893;SDS011;4483;48.622;9.230;2023-06-04T04:56:19;4.97;;;4.50;;
8893;SDS011;4483;48.622;9.230;2023-06-04T04:58:47;5.50;;;5.00;;
8893;SDS011;4483;48.622;9.230;2023-06-04T05:01:15;5.10;;;4.70;;
8893;SDS011;4483;48.622;9.230;2023-06-04T05:03:42;5.87;;;5.20;;
8893;SDS011;4483;48.622;9.230;2023-06-04T05:06:08;7.60;;;5.20;;
8893;SDS011;4483;48.622;9.230;2023-06-04T05:08:35;5.70;;;5.20;;
8893;SDS011;4483;48.622;9.230;2023-06-04T05:11:01;6.17;;;5.07;;
8893;SDS011;4483;48.622;9.230;2023-06-04T05:13:28;8.10;;;5.10;;
8893;SDS011;4483;48.622;9.230;2023-06-04T05:15:55;6.10;;;5.50;;
8893;SDS011;4483;48.622;9.230;2023-06-04T05:18:23;5.23;;;4.83;;
8893;SDS011;4483;48.622;9.230;2023-06-04T05:20:53;6.70;;;4.97;;
8893;SDS011;4483;48.622;9.230;2023-06-04T05:23:20;9.23;;;6.10;;
8893;SDS011;4483;48.622;9.230;2023-06-04T05:25:47;5.87;;;5.27;;
8893;SDS011;4483;48.622;9.230;2023-06-04T05:28:14;5.23;;;4.73;;
8893;SDS011;4483;48.622;9.230;2023-06-04T05:30:40;6.00;;;5.50;;
8893;SDS011;4483;48.622;9.230;2023-06-04T05:33:08;5.60;;;4.73;;
8893;SDS011;4483;48.622;9.230;2023-06-04T05:35:45;5.40;;;4.90;;
8893;SDS011;4483;48.622;9.230;2023-06-04T05:38:13;5.80;;;5.23;;
8893;SDS011;4483;48.622;9.230;2023-06-04T05:40:42;6.87;;;4.93;;
8893;SDS011;4483;48.622;9.230;2023-06-04T05:43:08;5.77;;;5.10;;
8893;SDS011;4483;48.622;9.230;2023-06-04T05:45:35;5.23;;;4.83;;
8893;SDS011;4483;48.622;9.230;2023-06-04T05:48:02;5.03;;;4.57;;
8893;SDS011;4483;48.622;9.230;2023-06-04T05:50:34;9.30;;;4.10;;
8893;SDS011;4483;48.622;9.230;2023-06-04T05:53:02;5.07;;;4.03;;
8893;SDS011;4483;48.622;9.230;2023-06-04T05:55:29;7.70;;;4.30;;
8893;SDS011;4483;48.622;9.230;2023-06-04T05:57:56;4.43;;;3.73;;
8893;SDS011;4483;48.622;9.230;2023-06-04T06:00:22;4.43;;;3.53;;
8893;SDS011;4483;48.622;9.230;2023-06-04T06:02:49;3.87;;;3.57;;
8893;SDS011;4483;48.622;9.230;2023-06-04T06:05:17;5.47;;;3.60;;
8893;SDS011;4483;48.622;9.230;2023-06-04T06:07:44;3.30;;;3.00;;
8893;SDS011;4483;48.622;9.230;2023-06-04T06:10:12;3.80;;;3.33;;
8893;SDS011;4483;48.622;9.230;2023-06-04T06:12:40;5.73;;;2.93;;
8893;SDS011;4483;48.622;9.230;2023-06-04T06:15:07;3.87;;;2.90;;
8893;SDS011;4483;48.622;9.230;2023-06-04T06:17:35;3.03;;;2.60;;
8893;SDS011;4483;48.622;9.230;2023-06-04T06:20:04;2.30;;;2.13;;
8893;SDS011;4483;48.622;9.230;2023-06-04T06:22:32;3.17;;;2.40;;
8893;SDS011;4483;48.622;9.230;2023-06-04T06:24:59;2.47;;;2.17;;
8893;SDS011;4483;48.622;9.230;2023-06-04T06:27:27;8.03;;;2.20;;
8893;SDS011;4483;48.622;9.230;2023-06-04T06:29:54;2.60;;;2.13;;
8893;SDS011;4483;48.622;9.230;2023-06-04T06:32:20;2.40;;;2.13;;
8893;SDS011;4483;48.622;9.230;2023-06-04T06:34:47;3.08;;;2.80;;
8893;SDS011;4483;48.622;9.230;2023-06-04T06:37:13;3.07;;;2.77;;
8893;SDS011;4483;48.622;9.230;2023-06-04T06:39:40;3.37;;;2.30;;
8893;SDS011;4483;48.622;9.230;2023-06-04T06:42:07;2.67;;;2.30;;
8893;SDS011;4483;48.622;9.230;2023-06-04T06:44:35;2.97;;;2.10;;
8893;SDS011;4483;48.622;9.230;2023-06-04T06:47:01;5.73;;;2.43;;
8893;SDS011;4483;48.622;9.230;2023-06-04T06:49:28;2.58;;;2.38;;
8893;SDS011;4483;48.622;9.230;2023-06-04T06:51:55;2.75;;;2.55;;
8893;SDS011;4483;48.622;9.230;2023-06-04T06:54:21;3.33;;;2.08;;
8893;SDS011;4483;48.622;9.230;2023-06-04T06:56:48;4.90;;;2.30;;
8893;SDS011;4483;48.622;9.230;2023-06-04T06:59:15;2.50;;;2.30;;
8893;SDS011;4483;48.622;9.230;2023-06-04T07:01:43;3.35;;;2.30;;
8893;SDS011;4483;48.622;9.230;2023-06-04T07:04:10;5.75;;;2.42;;
8893;SDS011;4483;48.622;9.230;2023-06-04T07:06:37;2.35;;;2.15;;
8893;SDS011;4483;48.622;9.230;2023-06-04T07:09:03;2.30;;;2.20;;
8893;SDS011;4483;48.622;9.230;2023-06-04T07:11:30;3.53;;;2.35;;
8893;SDS011;4483;48.622;9.230;2023-06-04T07:13:57;2.60;;;2.40;;
8893;SDS011;4483;48.622;9.230;2023-06-04T07:16:24;4.18;;;2.17;;
8893;SDS011;4483;48.622;9.230;2023-06-04T07:18:51;2.80;;;2.03;;
8893;SDS011;4483;48.622;9.230;2023-06-04T07:21:18;3.25;;;2.13;;
8893;SDS011;4483;48.622;9.230;2023-06-04T07:23:47;2.58;;;2.38;;
8893;SDS011;4483;48.622;9.230;2023-06-04T07:26:16;4.38;;;2.03;;
8893;SDS011;4483;48.622;9.230;2023-06-04T07:28:42;4.50;;;2.05;;
8893;SDS011;4483;48.622;9.230;2023-06-04T07:31:09;7.43;;;2.42;;
8893;SDS011;4483;48.622;9.230;2023-06-04T07:33:36;2.50;;;2.00;;
8893;SDS011;4483;48.622;9.230;2023-06-04T07:36:09;3.15;;;2.20;;
8893;SDS011;4483;48.622;9.230;2023-06-04T07:38:36;3.53;;;2.65;;
8893;SDS011;4483;48.622;9.230;2023-06-04T07:41:02;3.28;;;2.35;;
8893;SDS011;4483;48.622;9.230;2023-06-04T07:43:29;2.83;;;2.63;;
8893;SDS011;4483;48.622;9.230;2023-06-04T07:45:56;2.80;;;2.42;;
8893;SDS011;4483;48.622;9.230;2023-06-04T07:48:22;4.45;;;2.28;;
8893;SDS011;4483;48.622;9.230;2023-06-04T07:50:55;2.10;;;2.00;;
8893;SDS011;4483;48.622;9.230;2023-06-04T07:53:23;3.40;;;2.22;;
8893;SDS011;4483;48.622;9.230;2023-06-04T07:55:50;2.38;;;2.17;;
8893;SDS011;4483;48.622;9.230;2023-06-04T07:58:16;2.60;;;2.17;;
8893;SDS011;4483;48.622;9.230;2023-06-04T08:00:43;5.45;;;2.20;;
8893;SDS011;4483;48.622;9.230;2023-06-04T08:03:09;2.22;;;2.13;;
8893;SDS011;4483;48.622;9.230;2023-06-04T08:05:36;3.45;;;2.28;;
8893;SDS011;4483;48.622;9.230;2023-06-04T08:08:03;3.13;;;2.17;;
8893;SDS011;4483;48.622;9.230;2023-06-04T08:10:31;3.67;;;2.35;;
8893;SDS011;4483;48.622;9.230;2023-06-04T08:12:58;3.65;;;2.28;;
8893;SDS011;4483;48.622;9.230;2023-06-04T08:15:25;3.95;;;2.20;;
8893;SDS011;4483;48.622;9.230;2023-06-04T08:17:51;4.18;;;2.20;;
8893;SDS011;4483;48.622;9.230;2023-06-04T08:20:18;2.85;;;2.15;;
8893;SDS011;4483;48.622;9.230;2023-06-04T08:22:44;2.42;;;2.22;;
8893;SDS011;4483;48.622;9.230;2023-06-04T08:25:11;4.97;;;2.50;;
8893;SDS011;4483;48.622;9.230;2023-06-04T08:27:40;2.65;;;2.35;;
8893;SDS011;4483;48.622;9.230;2023-06-04T08:30:07;3.10;;;2.20;;
8893;SDS011;4483;48.622;9.230;2023-06-04T08:32:35;2.47;;;2.30;;
8893;SDS011;4483;48.622;9.230;2023-06-04T08:35:02;3.25;;;2.20;;
8893;SDS011;4483;48.622;9.230;2023-06-04T08:37:30;2.00;;;1.90;;
8893;SDS011;4483;48.622;9.230;2023-06-04T08:39:56;2.80;;;2.60;;
8893;SDS011;4483;48.622;9.230;2023-06-04T08:42:26;2.65;;;2.45;;
8893;SDS011;4483;48.622;9.230;2023-06-04T08:44:57;2.50;;;2.30;;
8893;SDS011;4483;48.622;9.230;2023-06-04T08:47:24;2.45;;;2.25;;
8893;SDS011;4483;48.622;9.230;2023-06-04T08:49:52;3.28;;;2.40;;
8893;SDS011;4483;48.622;9.230;2023-06-04T08:52:21;4.00;;;2.92;;
8893;SDS011;4483;48.622;9.230;2023-06-04T08:54:49;2.72;;;2.40;;
8893;SDS011;4483;48.622;9.230;2023-06-04T08:57:17;3.97;;;2.40;;
8893;SDS011;4483;48.622;9.230;2023-06-04T08:59:44;1.90;;;1.83;;
8893;SDS011;4483;48.622;9.230;2023-06-04T09:02:13;2.25;;;2.08;;
8893;SDS011;4483;48.622;9.230;2023-06-04T09:04:40;2.72;;;2.28;;
8893;SDS011;4483;48.622;9.230;2023-06-04T09:07:08;3.08;;;2.35;;
8893;SDS011;4483;48.622;9.230;2023-06-04T09:09:36;2.35;;;2.10;;
8893;SDS011;4483;48.622;9.230;2023-06-04T09:12:05;4.18;;;2.20;;
8893;SDS011;4483;48.622;9.230;2023-06-04T09:14:36;2.90;;;2.70;;
8893;SDS011;4483;48.622;9.230;2023-06-04T09:17:02;4.53;;;2.25;;
8893;SDS011;4483;48.622;9.230;2023-06-04T09:19:31;2.92;;;2.63;;
8893;SDS011;4483;48.622;9.230;2023-06-04T09:21:58;3.55;;;2.40;;
8893;SDS011;4483;48.622;9.230;2023-06-04T09:24:38;3.40;;;2.60;;
8893;SDS011;4483;48.622;9.230;2023-06-04T09:27:09;2.63;;;2.42;;
8893;SDS011;4483;48.622;9.230;2023-06-04T09:29:36;2.60;;;2.40;;
8893;SDS011;4483;48.622;9.230;2023-06-04T09:32:02;4.72;;;2.35;;
8893;SDS011;4483;48.622;9.230;2023-06-04T09:34:29;5.20;;;3.05;;
8893;SDS011;4483;48.622;9.230;2023-06-04T09:36:57;3.55;;;2.50;;
8893;SDS011;4483;48.622;9.230;2023-06-04T09:39:24;4.25;;;2.53;;
8893;SDS011;4483;48.622;9.230;2023-06-04T09:41:58;3.03;;;2.58;;
8893;SDS011;4483;48.622;9.230;2023-06-04T09:44:26;2.63;;;2.42;;
8893;SDS011;4483;48.622;9.230;2023-06-04T09:46:53;5.57;;;2.60;;
8893;SDS011;4483;48.622;9.230;2023-06-04T09:49:20;2.50;;;2.20;;
8893;SDS011;4483;48.622;9.230;2023-06-04T09:51:48;3.40;;;2.53;;
8893;SDS011;4483;48.622;9.230;2023-06-04T09:54:16;2.85;;;2.55;;
8893;SDS011;4483;48.622;9.230;2023-06-04T09:56:43;3.28;;;2.47;;
8893;SDS011;4483;48.622;9.230;2023-06-04T09:59:09;2.70;;;2.50;;
8893;SDS011;4483;48.622;9.230;2023-06-04T10:01:38;2.78;;;2.58;;
8893;SDS011;4483;48.622;9.230;2023-06-04T10:04:06;2.92;;;2.53;;
8893;SDS011;4483;48.622;9.230;2023-06-04T10:06:34;4.55;;;2.40;;
8893;SDS011;4483;48.622;9.230;2023-06-04T10:09:05;4.70;;;2.80;;
8893;SDS011;4483;48.622;9.230;2023-06-04T10:11:34;2.97;;;2.78;;
8893;SDS011;4483;48.622;9.230;2023-06-04T10:14:02;3.35;;;2.83;;
8893;SDS011;4483;48.622;9.230;2023-06-04T10:16:36;3.15;;;2.78;;
8893;SDS011;4483;48.622;9.230;2023-06-04T10:19:04;3.35;;;2.83;;
8893;SDS011;4483;48.622;9.230;2023-06-04T10:21:33;5.45;;;2.90;;
8893;SDS011;4483;48.622;9.230;2023-06-04T10:24:01;3.78;;;3.20;;
8893;SDS011;4483;48.622;9.230;2023-06-04T10:26:29;4.03;;;2.97;;
8893;SDS011;4483;48.622;9.230;2023-06-04T10:28:58;2.55;;;2.35;;
8893;SDS011;4483;48.622;9.230;2023-06-04T10:31:26;6.00;;;3.10;;
8893;SDS011;4483;48.622;9.230;2023-06-04T10:33:53;2.78;;;2.45;;
8893;SDS011;4483;48.622;9.230;2023-06-04T10:36:21;3.38;;;3.08;;
8893;SDS011;4483;48.622;9.230;2023-06-04T10:38:49;3.10;;;2.80;;
8893;SDS011;4483;48.622;9.230;2023-06-04T10:41:17;4.25;;;2.85;;
8893;SDS011;4483;48.622;9.230;2023-06-04T10:43:46;3.97;;;3.15;;
8893;SDS011;4483;48.622;9.230;2023-06-04T10:46:14;5.80;;;3.22;;
8893;SDS011;4483;48.622;9.230;2023-06-04T10:48:45;3.65;;;2.72;;
8893;SDS011;4483;48.622;9.230;2023-06-04T10:51:12;7.03;;;3.00;;
8893;SDS011;4483;48.622;9.230;2023-06-04T10:53:40;4.25;;;3.40;;
8893;SDS011;4483;48.622;9.230;2023-06-04T10:56:06;3.70;;;3.08;;
8893;SDS011;4483;48.622;9.230;2023-06-04T10:58:33;3.72;;;3.20;;
8893;SDS011;4483;48.622;9.230;2023-06-04T11:01:02;3.17;;;2.88;;
8893;SDS011;4483;48.622;9.230;2023-06-04T11:03:34;5.00;;;3.10;;
8893;SDS011;4483;48.622;9.230;2023-06-04T11:06:02;5.03;;;3.33;;
8893;SDS011;4483;48.622;9.230;2023-06-04T11:08:29;3.63;;;3.30;;
8893;SDS011;4483;48.622;9.230;2023-06-04T11:10:56;5.47;;;3.33;;
8893;SDS011;4483;48.622;9.230;2023-06-04T11:13:23;4.70;;;3.47;;
8893;SDS011;4483;48.622;9.230;2023-06-04T11:15:50;3.80;;;3.35;;
8893;SDS011;4483;48.622;9.230;2023-06-04T11:18:19;4.03;;;3.25;;
8893;SDS011;4483;48.622;9.230;2023-06-04T11:20:47;3.72;;;3.42;;
8893;SDS011;4483;48.622;9.230;2023-06-04T11:23:15;8.02;;;3.60;;
8893;SDS011;4483;48.622;9.230;2023-06-04T11:25:42;6.78;;;3.15;;
8893;SDS011;4483;48.622;9.230;2023-06-04T11:28:14;4.97;;;3.17;;
8893;SDS011;4483;48.622;9.230;2023-06-04T11:30:41;3.67;;;3.38;;
8893;SDS011;4483;48.622;9.230;2023-06-04T11:33:08;4.72;;;3.60;;
8893;SDS011;4483;48.622;9.230;2023-06-04T11:35:40;3.53;;;3.22;;
8893;SDS011;4483;48.622;9.230;2023-06-04T11:38:09;6.32;;;3.30;;
8893;SDS011;4483;48.622;9.230;2023-06-04T11:40:36;3.72;;;3.00;;
8893;SDS011;4483;48.622;9.230;2023-06-04T11:43:02;4.40;;;3.33;;
8893;SDS011;4483;48.622;9.230;2023-06-04T11:45:29;3.78;;;3.40;;
8893;SDS011;4483;48.622;9.230;2023-06-04T11:47:56;4.47;;;3.47;;
8893;SDS011;4483;48.622;9.230;2023-06-04T11:50:23;6.13;;;3.53;;
8893;SDS011;4483;48.622;9.230;2023-06-04T11:52:54;6.72;;;3.90;;
8893;SDS011;4483;48.622;9.230;2023-06-04T11:55:21;4.40;;;3.78;;
8893;SDS011;4483;48.622;9.230;2023-06-04T11:57:48;4.50;;;3.30;;
8893;SDS011;4483;48.622;9.230;2023-06-04T12:00:16;5.53;;;3.33;;
8893;SDS011;4483;48.622;9.230;2023-06-04T12:02:50;5.60;;;3.53;;
8893;SDS011;4483;48.622;9.230;2023-06-04T12:05:18;3.40;;;3.10;;
8893;SDS011;4483;48.622;9.230;2023-06-04T12:07:48;4.28;;;3.38;;
8893;SDS011;4483;48.622;9.230;2023-06-04T12:10:17;3.28;;;3.05;;
8893;SDS011;4483;48.622;9.230;2023-06-04T12:12:44;3.70;;;3.40;;
8893;SDS011;4483;48.622;9.230;2023-06-04T12:15:11;3.75;;;3.33;;
8893;SDS011;4483;48.622;9.230;2023-06-04T12:17:48;3.95;;;3.20;;
8893;SDS011;4483;48.622;9.230;2023-06-04T12:20:15;4.43;;;3.30;;
8893;SDS011;4483;48.622;9.230;2023-06-04T12:22:44;4.22;;;3.20;;
8893;SDS011;4483;48.622;9.230;2023-06-04T12:25:11;5.00;;;4.50;;
8893;SDS011;4483;48.622;9.230;2023-06-04T12:27:47;3.70;;;3.40;;
8893;SDS011;4483;48.622;9.230;2023-06-04T12:30:14;3.70;;;3.40;;
8893;SDS011;4483;48.622;9.230;2023-06-04T12:32:41;5.15;;;3.67;;
8893;SDS011;4483;48.622;9.230;2023-06-04T12:35:08;7.88;;;3.70;;
8893;SDS011;4483;48.622;9.230;2023-06-04T12:37:35;3.90;;;3.60;;
8893;SDS011;4483;48.622;9.230;2023-06-04T12:40:02;9.38;;;3.78;;
8893;SDS011;4483;48.622;9.230;2023-06-04T12:42:31;12.45;;;3.60;;
8893;SDS011;4483;48.622;9.230;2023-06-04T12:44:59;3.45;;;3.15;;
8893;SDS011;4483;48.622;9.230;2023-06-04T12:47:26;3.70;;;3.28;;
8893;SDS011;4483;48.622;9.230;2023-06-04T12:49:52;5.07;;;3.22;;
8893;SDS011;4483;48.622;9.230;2023-06-04T12:52:19;3.40;;;3.20;;
8893;SDS011;4483;48.622;9.230;2023-06-04T12:54:47;6.22;;;3.08;;
8893;SDS011;4483;48.622;9.230;2023-06-04T12:57:14;3.47;;;3.20;;
8893;SDS011;4483;48.622;9.230;2023-06-04T12:59:41;4.25;;;3.25;;
8893;SDS011;4483;48.622;9.230;2023-06-04T13:02:09;7.38;;;4.00;;
8893;SDS011;4483;48.622;9.230;2023-06-04T13:04:35;3.70;;;3.40;;
8893;SDS011;4483;48.622;9.230;2023-06-04T13:07:02;6.40;;;4.07;;
8893;SDS011;4483;48.622;9.230;2023-06-04T13:09:29;3.80;;;3.35;;
8893;SDS011;4483;48.622;9.230;2023-06-04T13:11:57;5.43;;;3.38;;
8893;SDS011;4483;48.622;9.230;2023-06-04T13:14:24;4.43;;;3.22;;
8893;SDS011;4483;48.622;9.230;2023-06-04T13:16:50;3.30;;;3.00;;
8893;SDS011;4483;48.622;9.230;2023-06-04T13:19:18;3.90;;;3.60;;
8893;SDS011;4483;48.622;9.230;2023-06-04T13:21:45;3.83;;;3.20;;
8893;SDS011;4483;48.622;9.230;2023-06-04T13:24:12;3.60;;;3.10;;
8893;SDS011;4483;48.622;9.230;2023-06-04T13:26:38;3.33;;;3.03;;
8893;SDS011;4483;48.622;9.230;2023-06-04T13:29:07;3.25;;;2.95;;
8893;SDS011;4483;48.622;9.230;2023-06-04T13:31:33;5.18;;;3.55;;
8893;SDS011;4483;48.622;9.230;2023-06-04T13:34:00;3.50;;;3.20;;
8893;SDS011;4483;48.622;9.230;2023-06-04T13:36:28;4.53;;;2.97;;
8893;SDS011;4483;48.622;9.230;2023-06-04T13:38:55;3.90;;;3.13;;
8893;SDS011;4483;48.622;9.230;2023-06-04T13:41:21;4.82;;;3.33;;
8893;SDS011;4483;48.622;9.230;2023-06-04T13:43:48;3.45;;;3.15;;
8893;SDS011;4483;48.622;9.230;2023-06-04T13:46:14;3.03;;;2.83;;
8893;SDS011;4483;48.622;9.230;2023-06-04T13:48:41;4.15;;;2.78;;
8893;SDS011;4483;48.622;9.230;2023-06-04T13:51:08;3.60;;;3.30;;
8893;SDS011;4483;48.622;9.230;2023-06-04T13:53:36;8.10;;;3.17;;
8893;SDS011;4483;48.622;9.230;2023-06-04T13:56:03;7.80;;;3.55;;
8893;SDS011;4483;48.622;9.230;2023-06-04T13:58:29;4.20;;;3.15;;
8893;SDS011;4483;48.622;9.230;2023-06-04T14:00:56;5.00;;;3.10;;
8893;SDS011;4483;48.622;9.230;2023-06-04T14:03:23;4.68;;;3.30;;
8893;SDS011;4483;48.622;9.230;2023-06-04T14:05:50;5.13;;;2.97;;
8893;SDS011;4483;48.622;9.230;2023-06-04T14:08:16;3.45;;;3.22;;
8893;SDS011;4483;48.622;9.230;2023-06-04T14:10:44;3.40;;;3.20;;
8893;SDS011;4483;48.622;9.230;2023-06-04T14:13:11;2.92;;;2.72;;
8893;SDS011;4483;48.622;9.230;2023-06-04T14:15:37;5.47;;;3.40;;
8893;SDS011;4483;48.622;9.230;2023-06-04T14:18:04;3.60;;;3.30;;
8893;SDS011;4483;48.622;9.230;2023-06-04T14:20:32;3.53;;;3.28;;
8893;SDS011;4483;48.622;9.230;2023-06-04T14:22:59;8.73;;;3.28;;
8893;SDS011;4483;48.622;9.230;2023-06-04T14:25:26;3.53;;;3.22;;
8893;SDS011;4483;48.622;9.230;2023-06-04T14:27:54;3.90;;;3.25;;
8893;SDS011;4483;48.622;9.230;2023-06-04T14:30:20;4.20;;;3.40;;
8893;SDS011;4483;48.622;9.230;2023-06-04T14:32:47;3.63;;;3.05;;
8893;SDS011;4483;48.622;9.230;2023-06-04T14:35:14;2.92;;;2.72;;
8893;SDS011;4483;48.622;9.230;2023-06-04T14:37:40;5.13;;;3.08;;
8893;SDS011;4483;48.622;9.230;2023-06-04T14:40:07;4.47;;;3.22;;
8893;SDS011;4483;48.622;9.230;2023-06-04T14:42:34;3.78;;;3.25;;
8893;SDS011;4483;48.622;9.230;2023-06-04T14:45:02;3.60;;;3.13;;
8893;SDS011;4483;48.622;9.230;2023-06-04T14:47:29;4.47;;;3.17;;
8893;SDS011;4483;48.622;9.230;2023-06-04T14:49:56;5.20;;;3.45;;
8893;SDS011;4483;48.622;9.230;2023-06-04T14:52:23;3.80;;;3.40;;
8893;SDS011;4483;48.622;9.230;2023-06-04T14:54:49;3.08;;;2.88;;
8893;SDS011;4483;48.622;9.230;2023-06-04T14:57:16;3.35;;;3.03;;
8893;SDS011;4483;48.622;9.230;2023-06-04T14:59:43;4.40;;;3.10;;
8893;SDS011;4483;48.622;9.230;2023-06-04T15:02:11;5.60;;;3.40;;
8893;SDS011;4483;48.622;9.230;2023-06-04T15:04:44;3.40;;;3.10;;
8893;SDS011;4483;48.622;9.230;2023-06-04T15:07:11;3.20;;;3.00;;
8893;SDS011;4483;48.622;9.230;2023-06-04T15:09:37;3.50;;;3.20;;
8893;SDS011;4483;48.622;9.230;2023-06-04T15:12:04;3.50;;;3.20;;
8893;SDS011;4483;48.622;9.230;2023-06-04T15:14:31;3.05;;;2.85;;
8893;SDS011;4483;48.622;9.230;2023-06-04T15:16:57;3.72;;;3.10;;